ESPA

Luleå Airport

Luleå, Sweden
TAF COR ESPA 221455Z 2215/2223 VRB02KT CAVOK
Issued Valid From Valid To
Jan-22 @ 14:55 UTC
(2 hours ago)
Jan-22 @ 15:00 UTC
(2 hours ago)
Jan-22 @ 23:00 UTC
(in 6 hours)
Jan-22 @ 15:00 to Jan-22 @ 23:00
TAF COR ESPA 221455Z 2215/2223 VRB02KT CAVOK
Wind Visibility Clouds Conditions
Variable at 2 knots 10,000+ meters
  • No significant clouds
TAF COR ESPA 221455Z 2215/2223 VRB02KT CAVOK
Issued Jan-22 @ 14:55 UTC
(2 hours ago)
Valid From Jan-22 @ 15:00 UTC
(2 hours ago)
Valid To Jan-22 @ 23:00 UTC
(in 6 hours)
Jan-22 @ 15:00 - Jan-22 @ 23:00
Wind Visibility
Variable at 2 knots 10,000+ meters
Clouds
  • No significant clouds
Conditions